Kezdőlap
METAR-TAF:

METAR-TAF

Repülőterek :

Zsolna, Szlovákia

földrajzi szélesség: 49-14N, földrajzi hosszúság: 018-36-49E, magasság: 312 m

Jelenlegi meteorológiai megfigyelések

A jelentés 23 perccel ezelõtt készült, 22:00 UTC
Különbözõ irányokból fújó szél 2 kt
Hőmérséklet -6°C
Páratartalom 86%
Légköri nyomás 1020 hPa
Látótávolság 10 km, vagy több
Kevés felhő 4600 lábon

METAR: LZZI 182200Z VRB02KT 9999 FEW046 M06/M08 Q1020

Idő: 23:23 (22:23 UTC)

Előrejelzés

A jelentés 2 órával és 23 perccel ezelõtt készült, 20:00 UTC
Az előrejelzés 18-én 21 óra UTC és 19-én 06 óra UTC között érvényes
Különbözõ irányokból fújó szél 2 kt
Látótávolság 10 km, vagy több
Szórványos felhőzet 4000 lábon
Valószínűség 40%
19-én 01 óra UTC és 19-én 06 óra UTC között
Látótávolság: 2000 m
Kevés felhő 300 lábon
ködfoltok

TAF: LZZI 182000Z 1821/1906 VRB02KT 9999 SCT040 PROB40 1901/1906 2000 BCFG FEW003

Meteorológiai megfigyelések és előrejelzések több, mint 4000 repülőtéren (METAR és TAF jelentéseket).

A térképen piros és sárga pontok jelzik az elérhető meteorológiai állomásokat.

Mozgassa az egeret a pont fölött, hogy megjelenjen az állomás neve.

Azután kattintson az időjárási megfigyelések és előrejelzések megtekintéséhez.

A térkép megváltoztatása: kattintson a fekete keresztel jelölt zöld gombra ráközelítéshez, a vonallal jelölt zöld gombra távolításhoz, vagy a zöld nyilakra a szomszédos térképek eléréséhez.


METAR-TAF: